createdAt,value
2022-12-23T00:08:02.214Z,96950
2022-12-23T00:20:02.221Z,96970
2022-12-23T00:32:02.441Z,96970
2022-12-23T00:44:02.215Z,96970
2022-12-23T00:56:02.361Z,96980
2022-12-23T01:08:02.116Z,96990
2022-12-23T01:20:02.120Z,97020
2022-12-23T01:32:02.207Z,97050
2022-12-23T01:44:02.099Z,97060
2022-12-23T01:56:02.257Z,97070
2022-12-23T02:08:02.320Z,97080
2022-12-23T02:20:02.110Z,97080
2022-12-23T02:32:02.213Z,97080
2022-12-23T02:44:02.212Z,97080
2022-12-23T02:56:02.216Z,97090
2022-12-23T03:08:02.142Z,97080
2022-12-23T03:20:02.185Z,97100
2022-12-23T03:32:02.223Z,97130
2022-12-23T03:44:02.104Z,97120
2022-12-23T03:56:02.179Z,97150
2022-12-23T04:08:02.221Z,97160
2022-12-23T04:20:02.175Z,97160
2022-12-23T04:32:02.219Z,97150
2022-12-23T04:44:02.201Z,97130
2022-12-23T04:56:02.215Z,97150
2022-12-23T05:08:02.486Z,97160
2022-12-23T05:20:02.226Z,97170
2022-12-23T05:32:02.276Z,97160
2022-12-23T05:44:02.185Z,97170
2022-12-23T05:56:02.111Z,97190
2022-12-23T06:08:02.110Z,97200
2022-12-23T06:20:02.217Z,97210
2022-12-23T06:32:02.249Z,97230
2022-12-23T06:44:02.098Z,97220
2022-12-23T06:56:02.102Z,97180
2022-12-23T07:08:02.105Z,97200
2022-12-23T07:20:02.113Z,97200
2022-12-23T07:32:02.288Z,97230
2022-12-23T07:44:02.230Z,97240
2022-12-23T07:56:02.210Z,97240
2022-12-23T08:08:02.124Z,97230
2022-12-23T08:20:02.225Z,97230
2022-12-23T08:32:02.213Z,97250
2022-12-23T08:44:02.225Z,97240
2022-12-23T08:56:02.230Z,97240
2022-12-23T09:08:02.528Z,97230
2022-12-23T09:20:02.112Z,97230
2022-12-23T09:32:02.101Z,97230
2022-12-23T09:44:02.103Z,97230
2022-12-23T09:56:02.104Z,97200
2022-12-23T10:08:02.225Z,97210
2022-12-23T10:20:02.230Z,97210
2022-12-23T10:32:02.283Z,97170
2022-12-23T10:44:02.209Z,97130
2022-12-23T10:56:02.224Z,97100
2022-12-23T11:08:02.110Z,97090
2022-12-23T11:20:02.189Z,97070
2022-12-23T11:32:02.236Z,97060
2022-12-23T11:44:02.174Z,97040
2022-12-23T11:56:02.236Z,97030
2022-12-23T12:08:02.185Z,97030
2022-12-23T12:20:02.197Z,96980
2022-12-23T12:32:02.104Z,96930
2022-12-23T12:44:02.121Z,96920
2022-12-23T12:56:02.213Z,96880
2022-12-23T13:08:02.110Z,96860
2022-12-23T13:20:02.304Z,96870
2022-12-23T13:32:02.217Z,96810
2022-12-23T13:44:02.245Z,96810
2022-12-23T13:56:02.680Z,96790
2022-12-23T14:08:02.113Z,96810
2022-12-23T14:20:02.233Z,96790
2022-12-23T14:32:02.101Z,96770
2022-12-23T14:44:02.134Z,96770
2022-12-23T14:56:02.227Z,96750
2022-12-23T15:08:02.225Z,96740
2022-12-23T15:20:02.267Z,96730
2022-12-23T15:32:02.148Z,96740
2022-12-23T15:44:02.105Z,96750
2022-12-23T15:56:02.217Z,96780
2022-12-23T16:08:02.115Z,96770
2022-12-23T16:20:02.139Z,96780
2022-12-23T16:32:02.496Z,96800
2022-12-23T16:44:02.126Z,96790
2022-12-23T16:56:02.246Z,96800
2022-12-23T17:08:02.127Z,96830
2022-12-23T17:20:02.095Z,96870
2022-12-23T17:32:02.163Z,96880
2022-12-23T17:44:02.480Z,96900
2022-12-23T17:56:02.107Z,96920
2022-12-23T18:08:02.128Z,96940
2022-12-23T18:20:02.144Z,96940
2022-12-23T18:32:02.161Z,96960
2022-12-23T18:44:02.168Z,96980
2022-12-23T18:56:02.183Z,96990
2022-12-23T19:08:02.111Z,97000
2022-12-23T19:20:02.189Z,97020
2022-12-23T19:32:02.116Z,96980
2022-12-23T19:44:02.224Z,96990
2022-12-23T19:56:02.207Z,97020
2022-12-23T20:08:02.106Z,97050
2022-12-23T20:20:02.107Z,97080
2022-12-23T20:32:02.220Z,97090
2022-12-23T20:44:33.237Z,97120
2022-12-23T20:56:02.213Z,97140
2022-12-23T21:08:02.235Z,97150
2022-12-23T21:20:07.458Z,97160
2022-12-23T21:32:02.228Z,97170
2022-12-23T21:44:02.106Z,97170
2022-12-23T21:56:02.222Z,97190
2022-12-23T22:08:02.224Z,97200
2022-12-23T22:20:02.114Z,97220
2022-12-23T22:32:02.241Z,97240
2022-12-23T22:44:02.108Z,97260
2022-12-23T22:56:02.201Z,97300
2022-12-23T23:08:02.150Z,97310
2022-12-23T23:20:02.314Z,97320
2022-12-23T23:32:02.136Z,97340
2022-12-23T23:44:02.194Z,97350
2022-12-23T23:56:02.198Z,97370
